Terminal Aerodrome Forecast
Issued by NWS Dallas/Fort Worth, TX

Current Version | Previous Version | Text Only | Print | Product List | Glossary On
Versions: 1 2 3 4 5 6 7 8 9 10 11 12 13 14 15 16 17 18 19 20 21 22 23 24 25 26 27 28 29 30 31
000
FTUS44 KFWD 232300
TAFDFW
TAF
KDFW 232325Z 2400/2506 17017KT P6SM SCT060 SCT250
     FM240800 18016KT P6SM VCTS SCT015 BKN040CB
     FM241100 19017KT P6SM OVC015
     FM241600 26011KT P6SM BKN035
     FM241800 32017KT P6SM SCT035 BKN250
     FM250100 02005KT P6SM SKC=

USA.gov is the U.S. government's official web portal to all federal, state and local government web resources and services.